createdAt,value
2018-12-23T00:00:11.337Z,34.23
2018-12-23T00:02:41.826Z,40.70
2018-12-23T00:05:11.619Z,39.57
2018-12-23T00:07:40.304Z,39.23
2018-12-23T00:10:08.943Z,41.17
2018-12-23T00:12:37.329Z,37.80
2018-12-23T00:15:07.270Z,39.10
2018-12-23T00:17:36.578Z,35.87
2018-12-23T00:20:07.371Z,35.23
2018-12-23T00:22:35.875Z,31.83
2018-12-23T00:25:04.452Z,31.27
2018-12-23T00:27:32.881Z,34.40
2018-12-23T00:30:01.225Z,31.03
2018-12-23T00:32:29.890Z,33.33
2018-12-23T00:34:58.274Z,28.73
2018-12-23T00:37:26.645Z,31.63
2018-12-23T00:39:56.035Z,26.23
2018-12-23T00:42:24.431Z,27.47
2018-12-23T00:44:53.213Z,29.87
2018-12-23T00:47:21.966Z,24.70
2018-12-23T00:49:50.439Z,25.77
2018-12-23T00:52:19.128Z,21.30
2018-12-23T00:54:47.619Z,31.30
2018-12-23T00:57:19.367Z,26.37
2018-12-23T00:59:48.075Z,29.80
2018-12-23T01:02:16.778Z,22.47
2018-12-23T01:04:45.256Z,28.47
2018-12-23T01:07:15.192Z,29.23
2018-12-23T01:09:43.627Z,22.37
2018-12-23T01:12:13.032Z,25.17
2018-12-23T01:14:42.048Z,23.73
2018-12-23T01:17:10.512Z,25.33
2018-12-23T01:19:41.817Z,24.77
2018-12-23T01:22:10.259Z,21.30
2018-12-23T01:24:39.611Z,25.20
2018-12-23T01:27:08.048Z,23.10
2018-12-23T01:29:36.452Z,25.43
2018-12-23T01:32:04.955Z,24.87
2018-12-23T01:34:37.186Z,27.00
2018-12-23T01:37:05.211Z,27.37
2018-12-23T01:39:33.712Z,25.10
2018-12-23T01:42:02.151Z,34.70
2018-12-23T01:44:31.330Z,32.83
2018-12-23T01:47:01.454Z,24.10
2018-12-23T01:49:30.387Z,26.97
2018-12-23T01:51:59.093Z,28.37
2018-12-23T01:54:27.556Z,24.43
2018-12-23T01:56:56.008Z,20.83
2018-12-23T01:59:25.532Z,21.80
2018-12-23T02:01:53.991Z,27.37
2018-12-23T02:04:22.813Z,21.27
2018-12-23T02:06:51.259Z,16.50
2018-12-23T02:09:20.155Z,16.90
2018-12-23T02:11:48.578Z,17.27
2018-12-23T02:14:18.073Z,22.90
2018-12-23T02:16:47.587Z,20.83
2018-12-23T02:19:16.062Z,26.00
2018-12-23T02:21:44.560Z,29.43
2018-12-23T02:24:13.958Z,25.30
2018-12-23T02:26:42.376Z,19.33
2018-12-23T02:29:10.807Z,21.43
2018-12-23T02:31:39.275Z,22.10
2018-12-23T02:34:07.750Z,20.10
2018-12-23T02:36:36.192Z,18.33
2018-12-23T02:39:07.036Z,21.77
2018-12-23T02:41:35.492Z,24.00
2018-12-23T02:44:04.071Z,20.20
2018-12-23T02:46:32.858Z,21.17
2018-12-23T02:49:01.589Z,22.93
2018-12-23T02:51:30.123Z,20.90
2018-12-23T02:53:58.572Z,22.87
2018-12-23T02:56:27.098Z,19.40
2018-12-23T02:58:55.532Z,20.17
2018-12-23T03:01:24.018Z,19.63
2018-12-23T03:03:52.512Z,22.17
2018-12-23T03:06:21.811Z,18.00
2018-12-23T03:08:50.247Z,16.80
2018-12-23T03:11:20.696Z,24.27
2018-12-23T03:13:49.117Z,22.97
2018-12-23T03:16:18.393Z,21.67
2018-12-23T03:18:46.857Z,19.27
2018-12-23T03:21:15.483Z,20.07
2018-12-23T03:23:44.356Z,19.10
2018-12-23T03:26:12.771Z,19.50
2018-12-23T03:28:41.217Z,21.70
2018-12-23T03:31:09.688Z,21.67
2018-12-23T03:33:38.125Z,21.50
2018-12-23T03:36:14.731Z,16.97
2018-12-23T03:38:37.254Z,14.10
2018-12-23T03:41:05.753Z,16.37
2018-12-23T03:43:34.463Z,14.47
2018-12-23T03:46:02.932Z,14.97
2018-12-23T03:48:31.343Z,15.77
2018-12-23T03:50:59.754Z,17.87
2018-12-23T03:53:28.179Z,18.90
2018-12-23T03:55:58.286Z,13.90
2018-12-23T03:58:28.080Z,15.40
2018-12-23T04:00:58.493Z,17.97
2018-12-23T04:03:27.479Z,16.47
2018-12-23T04:05:55.937Z,20.70
2018-12-23T04:08:24.737Z,18.13
2018-12-23T04:10:53.263Z,18.80
2018-12-23T04:13:21.679Z,23.57
2018-12-23T04:15:50.147Z,15.03
2018-12-23T04:18:18.502Z,18.13
2018-12-23T04:20:46.900Z,16.03
2018-12-23T04:23:15.318Z,13.93
2018-12-23T04:25:45.247Z,17.27
2018-12-23T04:28:13.758Z,22.27
2018-12-23T04:30:42.203Z,16.07
2018-12-23T04:33:10.561Z,21.87
2018-12-23T04:35:39.015Z,18.23
2018-12-23T04:38:07.463Z,17.90
2018-12-23T04:40:36.221Z,15.13
2018-12-23T04:43:04.671Z,15.90
2018-12-23T04:45:33.096Z,17.83
2018-12-23T04:48:01.567Z,15.80
2018-12-23T04:50:30.004Z,17.37
2018-12-23T04:52:58.417Z,18.27
2018-12-23T04:55:27.124Z,18.13
2018-12-23T04:57:55.590Z,17.63
2018-12-23T05:00:24.057Z,24.17
2018-12-23T05:02:52.449Z,22.27
2018-12-23T05:05:20.809Z,23.87
2018-12-23T05:07:49.227Z,19.50
2018-12-23T05:10:17.705Z,22.13
2018-12-23T05:12:46.107Z,23.67
2018-12-23T05:15:14.928Z,24.73
2018-12-23T05:17:43.836Z,24.57
2018-12-23T05:20:12.191Z,19.93
2018-12-23T05:22:40.599Z,26.03
2018-12-23T05:25:09.360Z,22.80
2018-12-23T05:27:37.746Z,31.13
2018-12-23T05:30:06.323Z,21.23
2018-12-23T05:32:34.735Z,19.43
2018-12-23T05:35:03.248Z,21.43
2018-12-23T05:37:31.647Z,17.53
2018-12-23T05:40:00.042Z,24.83
2018-12-23T05:42:28.633Z,28.50
2018-12-23T05:44:57.091Z,20.30
2018-12-23T05:47:25.507Z,22.77
2018-12-23T05:49:53.979Z,23.27
2018-12-23T05:52:23.831Z,22.67
2018-12-23T05:54:52.306Z,25.63
2018-12-23T05:57:20.964Z,28.60
2018-12-23T05:59:49.412Z,25.60
2018-12-23T06:02:17.730Z,28.63
2018-12-23T06:04:46.020Z,24.63
2018-12-23T06:07:14.379Z,30.90
2018-12-23T06:09:42.786Z,26.10
2018-12-23T06:12:11.215Z,25.60
2018-12-23T06:14:40.197Z,26.23
2018-12-23T06:17:08.496Z,29.67
2018-12-23T06:19:36.781Z,26.40
2018-12-23T06:22:05.636Z,20.70
2018-12-23T06:24:34.017Z,26.27
2018-12-23T06:27:02.328Z,26.03
2018-12-23T06:29:30.597Z,23.70
2018-12-23T06:31:58.897Z,29.30
2018-12-23T06:34:27.357Z,32.63
2018-12-23T06:36:55.806Z,29.63
2018-12-23T06:39:24.919Z,31.40
2018-12-23T06:41:53.342Z,28.50
2018-12-23T06:44:22.213Z,29.00
2018-12-23T06:46:50.584Z,28.80
2018-12-23T06:49:18.894Z,27.17
2018-12-23T06:51:47.287Z,32.10
2018-12-23T06:54:15.711Z,30.27
2018-12-23T06:56:44.152Z,33.23
2018-12-23T06:59:12.560Z,31.60
2018-12-23T07:01:41.503Z,27.20
2018-12-23T07:04:10.227Z,25.20
2018-12-23T07:06:38.610Z,24.73
2018-12-23T07:09:07.393Z,29.77
2018-12-23T07:11:35.871Z,28.80
2018-12-23T07:14:04.291Z,28.80
2018-12-23T07:16:32.668Z,29.43
2018-12-23T07:19:01.123Z,31.10
2018-12-23T07:21:30.627Z,36.00
2018-12-23T07:24:00.488Z,31.37
2018-12-23T07:26:29.278Z,29.03
2018-12-23T07:28:58.675Z,34.93
2018-12-23T07:31:27.175Z,102.30
2018-12-23T07:33:55.609Z,77.00
2018-12-23T07:36:24.069Z,59.10
2018-12-23T07:38:52.562Z,41.80
2018-12-23T07:41:21.056Z,32.93
2018-12-23T07:43:49.500Z,35.50
2018-12-23T07:46:17.956Z,32.00
2018-12-23T07:48:46.350Z,35.43
2018-12-23T07:51:14.710Z,30.27
2018-12-23T07:53:43.066Z,36.23
2018-12-23T07:56:11.747Z,28.27
2018-12-23T07:58:40.128Z,31.13
2018-12-23T08:01:13.864Z,28.23
2018-12-23T08:03:42.354Z,29.57
2018-12-23T08:06:11.451Z,26.43
2018-12-23T08:08:39.913Z,28.60
2018-12-23T08:11:08.336Z,27.77
2018-12-23T08:13:37.503Z,27.30
2018-12-23T08:16:11.227Z,23.77
2018-12-23T08:18:39.884Z,20.40
2018-12-23T08:21:08.948Z,28.27
2018-12-23T08:23:37.362Z,25.60
2018-12-23T08:26:06.135Z,23.50
2018-12-23T08:28:34.632Z,30.53
2018-12-23T08:31:03.046Z,27.10
2018-12-23T08:33:31.440Z,28.97
2018-12-23T08:35:59.869Z,32.87
2018-12-23T08:38:28.523Z,31.43
2018-12-23T08:40:57.263Z,31.67
2018-12-23T08:43:25.724Z,32.53
2018-12-23T08:45:54.121Z,29.67
2018-12-23T08:48:22.458Z,34.13
2018-12-23T08:50:50.880Z,27.23
2018-12-23T08:53:19.343Z,29.67
2018-12-23T08:55:47.848Z,37.03
2018-12-23T08:58:18.283Z,29.97
2018-12-23T09:00:46.753Z,32.77
2018-12-23T09:03:18.808Z,29.50
2018-12-23T09:05:45.776Z,31.27
2018-12-23T09:08:14.222Z,32.20
2018-12-23T09:10:42.652Z,34.93
2018-12-23T09:13:11.124Z,37.70
2018-12-23T09:15:39.703Z,25.37
2018-12-23T09:18:08.519Z,25.57
2018-12-23T09:20:37.045Z,27.00
2018-12-23T09:23:05.788Z,27.70
2018-12-23T09:25:34.220Z,25.67
2018-12-23T09:28:02.963Z,23.33
2018-12-23T09:30:31.463Z,28.53
2018-12-23T09:32:59.888Z,23.97
2018-12-23T09:35:28.311Z,22.77
2018-12-23T09:38:01.473Z,18.90
2018-12-23T09:40:27.198Z,18.23
2018-12-23T09:42:55.619Z,21.27
2018-12-23T09:45:24.329Z,18.30
2018-12-23T09:47:53.081Z,26.33
2018-12-23T09:50:21.514Z,25.10
2018-12-23T09:52:49.935Z,18.40
2018-12-23T09:55:18.436Z,23.90
2018-12-23T09:57:46.893Z,22.13
2018-12-23T10:00:15.637Z,20.83
2018-12-23T10:02:44.051Z,23.80
2018-12-23T10:05:12.523Z,20.57
2018-12-23T10:07:40.940Z,19.77
2018-12-23T10:10:10.655Z,24.17
2018-12-23T10:12:40.145Z,20.23
2018-12-23T10:15:09.309Z,23.23
2018-12-23T10:17:38.332Z,19.63
2018-12-23T10:20:07.711Z,23.77
2018-12-23T10:22:36.372Z,20.30
2018-12-23T10:25:04.862Z,17.67
2018-12-23T10:27:33.835Z,20.50
2018-12-23T10:30:02.332Z,20.40
2018-12-23T10:32:31.255Z,34.23
2018-12-23T10:34:59.687Z,21.30
2018-12-23T10:37:28.089Z,24.20
2018-12-23T10:39:56.508Z,21.30
2018-12-23T10:42:24.933Z,19.80
2018-12-23T10:44:53.458Z,22.37
2018-12-23T10:47:21.914Z,20.93
2018-12-23T10:49:50.564Z,23.57
2018-12-23T10:52:18.984Z,26.47
2018-12-23T10:54:47.545Z,25.47
2018-12-23T10:57:16.027Z,27.20
2018-12-23T10:59:44.388Z,27.97
2018-12-23T11:02:13.840Z,27.83
2018-12-23T11:04:42.557Z,18.43
2018-12-23T11:07:10.880Z,23.27
2018-12-23T11:09:39.462Z,27.27
2018-12-23T11:12:07.864Z,21.77
2018-12-23T11:14:36.876Z,27.33
2018-12-23T11:17:05.332Z,28.03
2018-12-23T11:19:34.296Z,22.13
2018-12-23T11:22:03.178Z,24.70
2018-12-23T11:24:31.601Z,25.17
2018-12-23T11:27:00.095Z,26.40
2018-12-23T11:29:28.584Z,23.47
2018-12-23T11:31:57.003Z,22.37
2018-12-23T11:34:25.751Z,25.27
2018-12-23T11:36:58.190Z,21.90
2018-12-23T11:39:26.554Z,20.17
2018-12-23T11:41:55.004Z,24.70
2018-12-23T11:44:23.508Z,24.90
2018-12-23T11:46:51.921Z,27.77
2018-12-23T11:49:20.341Z,27.40
2018-12-23T11:51:48.835Z,22.33
2018-12-23T11:54:17.281Z,23.00
2018-12-23T11:56:45.747Z,21.30
2018-12-23T11:59:14.213Z,23.23
2018-12-23T12:01:42.646Z,22.20
2018-12-23T12:04:11.174Z,21.73
2018-12-23T12:06:39.890Z,21.33
2018-12-23T12:09:08.448Z,21.40
2018-12-23T12:11:38.094Z,21.60
2018-12-23T12:14:06.556Z,20.17
2018-12-23T12:16:36.008Z,22.23
2018-12-23T12:19:04.448Z,21.83
2018-12-23T12:21:32.912Z,26.67
2018-12-23T12:24:01.394Z,18.17
2018-12-23T12:26:29.952Z,22.93
2018-12-23T12:28:58.431Z,24.67
2018-12-23T12:31:26.913Z,24.00
2018-12-23T12:33:55.338Z,39.27
2018-12-23T12:36:23.806Z,30.00
2018-12-23T12:38:52.516Z,55.70
2018-12-23T12:41:21.076Z,82.00
2018-12-23T12:43:49.571Z,28.47
2018-12-23T12:46:18.773Z,65.93
2018-12-23T12:48:47.204Z,63.40
2018-12-23T12:51:15.701Z,63.33
2018-12-23T12:53:44.171Z,51.00
2018-12-23T12:56:12.627Z,36.20
2018-12-23T12:58:41.042Z,55.13
2018-12-23T13:01:09.532Z,27.43
2018-12-23T13:03:38.356Z,26.33
2018-12-23T13:06:06.859Z,20.67
2018-12-23T13:08:36.252Z,28.20
2018-12-23T13:11:06.095Z,35.73
2018-12-23T13:13:34.541Z,31.77
2018-12-23T13:16:03.220Z,28.63
2018-12-23T13:18:31.744Z,27.60
2018-12-23T13:21:00.322Z,27.67
2018-12-23T13:23:28.900Z,25.87
2018-12-23T13:25:57.352Z,26.57
2018-12-23T13:28:26.508Z,30.70
2018-12-23T13:30:55.167Z,28.43
2018-12-23T13:33:23.612Z,21.07
2018-12-23T13:35:52.082Z,26.47
2018-12-23T13:38:24.757Z,29.80
2018-12-23T13:41:34.012Z,27.33
2018-12-23T13:44:15.337Z,29.63
2018-12-23T13:48:00.288Z,29.27
2018-12-23T13:50:49.449Z,30.93
2018-12-23T13:53:34.977Z,24.93
2018-12-23T13:56:49.142Z,29.53
2018-12-23T14:01:34.714Z,34.90
2018-12-23T14:06:17.870Z,35.13
2018-12-23T14:09:18.076Z,28.70
2018-12-23T14:11:55.378Z,28.60
2018-12-23T14:14:24.135Z,27.17
2018-12-23T14:16:52.808Z,28.33
2018-12-23T14:19:21.600Z,23.73
2018-12-23T14:21:50.047Z,24.17
2018-12-23T14:24:18.584Z,32.10
2018-12-23T14:26:47.376Z,32.37
2018-12-23T14:29:15.944Z,29.13
2018-12-23T14:31:44.590Z,26.97
2018-12-23T14:34:13.919Z,27.00
2018-12-23T14:36:42.741Z,31.20
2018-12-23T14:39:11.102Z,36.43
2018-12-23T14:41:40.539Z,27.87
2018-12-23T14:44:08.925Z,30.43
2018-12-23T14:46:37.292Z,30.40
2018-12-23T14:49:05.756Z,28.87
2018-12-23T14:51:35.334Z,29.50
2018-12-23T14:54:03.786Z,28.40
2018-12-23T14:56:32.267Z,30.53
2018-12-23T14:59:00.867Z,22.63
2018-12-23T15:01:29.341Z,44.93
2018-12-23T15:03:57.836Z,32.10
2018-12-23T15:06:26.189Z,44.40
2018-12-23T15:08:54.530Z,45.23
2018-12-23T15:11:22.859Z,37.20
2018-12-23T15:13:51.186Z,36.33
2018-12-23T15:16:20.101Z,39.37
2018-12-23T15:18:48.940Z,36.33
2018-12-23T15:21:17.739Z,36.10
2018-12-23T15:23:46.175Z,42.17
2018-12-23T15:26:15.598Z,46.07
2018-12-23T15:28:44.090Z,35.70
2018-12-23T15:31:12.560Z,38.83
2018-12-23T15:33:40.996Z,30.20
2018-12-23T15:36:09.928Z,37.70
2018-12-23T15:38:38.317Z,36.43
2018-12-23T15:41:06.776Z,29.27
2018-12-23T15:43:35.117Z,27.27
2018-12-23T15:46:03.717Z,32.80
2018-12-23T15:48:32.148Z,33.17
2018-12-23T15:51:00.548Z,34.10
2018-12-23T15:53:29.074Z,33.13
2018-12-23T15:55:57.512Z,36.43
2018-12-23T15:58:25.940Z,39.67
2018-12-23T16:00:54.239Z,38.20
2018-12-23T16:03:22.624Z,37.13
2018-12-23T16:05:51.067Z,39.83
2018-12-23T16:08:20.879Z,38.87
2018-12-23T16:10:49.250Z,39.50
2018-12-23T16:13:17.704Z,45.27
2018-12-23T16:15:46.385Z,43.60
2018-12-23T16:18:17.753Z,38.47
2018-12-23T16:20:46.557Z,49.00
2018-12-23T16:23:16.724Z,42.90
2018-12-23T16:25:45.187Z,38.57
2018-12-23T16:28:13.685Z,48.17
2018-12-23T16:30:42.625Z,51.57
2018-12-23T16:33:14.127Z,46.23
2018-12-23T16:35:42.611Z,47.80
2018-12-23T16:38:15.693Z,47.27
2018-12-23T16:40:45.648Z,36.13
2018-12-23T16:43:14.092Z,37.57
2018-12-23T16:45:42.573Z,49.60
2018-12-23T16:48:11.112Z,48.73
2018-12-23T16:50:39.715Z,39.00
2018-12-23T16:53:09.226Z,44.10
2018-12-23T16:55:38.059Z,51.80
2018-12-23T16:58:06.512Z,92.80
2018-12-23T17:00:34.976Z,50.97
2018-12-23T17:03:04.865Z,56.83
2018-12-23T17:05:33.308Z,47.77
2018-12-23T17:08:01.691Z,47.30
2018-12-23T17:10:30.122Z,47.60
2018-12-23T17:12:58.591Z,52.53
2018-12-23T17:15:27.120Z,54.43
2018-12-23T17:17:55.583Z,52.67
2018-12-23T17:20:23.953Z,42.87
2018-12-23T17:22:52.346Z,54.10
2018-12-23T17:25:20.758Z,46.73
2018-12-23T17:27:49.284Z,52.73
2018-12-23T17:30:18.029Z,51.70
2018-12-23T17:32:47.100Z,51.27
2018-12-23T17:35:15.562Z,52.43
2018-12-23T17:37:44.096Z,50.90
2018-12-23T17:40:16.446Z,48.20
2018-12-23T17:42:42.982Z,52.87
2018-12-23T17:45:11.956Z,60.20
2018-12-23T17:47:40.367Z,57.03
2018-12-23T17:50:09.488Z,56.07
2018-12-23T17:52:38.330Z,57.40
2018-12-23T17:55:07.234Z,58.97
2018-12-23T17:57:36.195Z,66.97
2018-12-23T18:00:04.989Z,60.50
2018-12-23T18:02:33.469Z,68.70
2018-12-23T18:05:02.323Z,73.40
2018-12-23T18:07:31.056Z,62.73
2018-12-23T18:09:59.574Z,60.83
2018-12-23T18:12:28.176Z,60.70
2018-12-23T18:14:56.633Z,58.10
2018-12-23T18:17:25.386Z,62.50
2018-12-23T18:19:53.884Z,57.97
2018-12-23T18:22:22.348Z,55.47
2018-12-23T18:24:50.757Z,52.20
2018-12-23T18:27:19.252Z,54.17
2018-12-23T18:29:48.751Z,61.63
2018-12-23T18:32:17.230Z,61.23
2018-12-23T18:34:45.679Z,65.00
2018-12-23T18:37:14.184Z,55.87
2018-12-23T18:39:42.623Z,46.83
2018-12-23T18:42:11.144Z,56.93
2018-12-23T18:44:39.604Z,53.50
2018-12-23T18:47:08.225Z,60.13
2018-12-23T18:49:36.755Z,55.27
2018-12-23T18:52:05.246Z,70.43
2018-12-23T18:54:33.729Z,69.47
2018-12-23T18:57:06.114Z,61.07
2018-12-23T18:59:38.738Z,81.23
2018-12-23T19:02:10.740Z,62.90
2018-12-23T19:04:39.339Z,68.03
2018-12-23T19:07:07.985Z,60.90
2018-12-23T19:09:54.419Z,67.00
2018-12-23T19:14:43.834Z,57.77
2018-12-23T19:17:23.259Z,67.20
2018-12-23T19:24:09.277Z,58.33
2018-12-23T19:27:07.378Z,66.17
2018-12-23T19:29:53.424Z,90.70
2018-12-23T19:32:47.615Z,95.70
2018-12-23T19:35:30.824Z,96.70
2018-12-23T19:41:20.290Z,96.10
2018-12-23T19:44:06.018Z,99.70
2018-12-23T19:48:53.127Z,75.30
2018-12-23T19:53:38.980Z,91.47
2018-12-23T19:56:31.161Z,85.10
2018-12-23T20:00:11.952Z,91.20
2018-12-23T20:02:59.223Z,129.60
2018-12-23T20:09:45.390Z,105.07
2018-12-23T20:13:42.140Z,104.33
2018-12-23T20:18:22.290Z,84.60
2018-12-23T20:21:12.451Z,94.67
2018-12-23T20:23:52.256Z,87.57
2018-12-23T20:27:30.825Z,93.60
2018-12-23T20:30:49.938Z,81.07
2018-12-23T20:34:16.163Z,79.27
2018-12-23T20:37:21.050Z,73.40
2018-12-23T20:40:33.609Z,84.63
2018-12-23T20:43:37.917Z,86.97
2018-12-23T20:46:56.432Z,72.73
2018-12-23T20:50:00.340Z,70.90
2018-12-23T20:53:25.119Z,85.17
2018-12-23T20:56:21.593Z,90.20
2018-12-23T20:59:37.665Z,83.07
2018-12-23T21:02:53.864Z,95.03
2018-12-23T21:05:58.587Z,110.13
2018-12-23T21:09:14.463Z,116.23
2018-12-23T21:12:31.284Z,112.90
2018-12-23T21:15:45.294Z,111.93
2018-12-23T21:18:40.512Z,101.43
2018-12-23T21:21:39.161Z,90.40
2018-12-23T21:24:58.096Z,95.27
2018-12-23T21:27:52.404Z,88.87
2018-12-23T21:31:17.654Z,77.33
2018-12-23T21:34:23.036Z,78.17
2018-12-23T21:37:38.677Z,69.60
2018-12-23T21:40:50.389Z,71.87
2018-12-23T21:43:52.668Z,66.67
2018-12-23T21:47:03.032Z,72.73
2018-12-23T21:50:13.296Z,62.60
2018-12-23T21:53:25.875Z,61.27
2018-12-23T21:56:41.267Z,62.20
2018-12-23T21:59:44.916Z,65.50
2018-12-23T22:02:52.082Z,62.00
2018-12-23T22:06:13.989Z,63.33
2018-12-23T22:09:17.957Z,53.10
2018-12-23T22:12:23.773Z,60.33
2018-12-23T22:14:51.848Z,58.83
2018-12-23T22:17:20.940Z,66.77
2018-12-23T22:19:49.096Z,58.83
2018-12-23T22:22:17.230Z,66.50
2018-12-23T22:24:45.392Z,60.63
2018-12-23T22:27:13.518Z,63.67
2018-12-23T22:29:41.740Z,65.67
2018-12-23T22:32:10.069Z,57.07
2018-12-23T22:34:38.310Z,62.07
2018-12-23T22:37:08.432Z,58.67
2018-12-23T22:39:36.640Z,62.20
2018-12-23T22:42:05.106Z,57.20
2018-12-23T22:44:34.013Z,61.47
2018-12-23T22:47:02.205Z,58.97
2018-12-23T22:49:30.289Z,56.70
2018-12-23T22:51:59.348Z,50.50
2018-12-23T22:54:27.566Z,51.83
2018-12-23T22:56:56.047Z,54.13
2018-12-23T22:59:28.021Z,50.83
2018-12-23T23:01:56.579Z,50.67
2018-12-23T23:04:24.825Z,50.20
2018-12-23T23:06:53.259Z,50.30
2018-12-23T23:09:21.872Z,46.30
2018-12-23T23:11:50.260Z,49.70
2018-12-23T23:14:18.432Z,44.40
2018-12-23T23:16:47.002Z,39.43
2018-12-23T23:19:15.176Z,43.17
2018-12-23T23:21:43.303Z,38.77
2018-12-23T23:24:11.464Z,44.00
2018-12-23T23:26:39.695Z,40.53
2018-12-23T23:29:09.451Z,39.20
2018-12-23T23:31:37.672Z,42.13
2018-12-23T23:34:06.025Z,47.90
2018-12-23T23:36:34.345Z,38.33
2018-12-23T23:39:02.954Z,41.47
2018-12-23T23:41:31.556Z,35.53
2018-12-23T23:44:02.331Z,37.90
2018-12-23T23:46:30.545Z,45.30
2018-12-23T23:48:59.090Z,44.60
2018-12-23T23:51:27.308Z,44.93
2018-12-23T23:53:55.455Z,50.90
2018-12-23T23:56:24.601Z,46.07
2018-12-23T23:58:54.601Z,41.67
